EDXW/GWT METAR and TAF weather

Enter ICAO airport designator
Station Type Date Time Source
EDXW METAR 2020/02/27 17:20 UTC NOAA

EDXW 271720Z VRB01KT 9999 SCT013 02/// Q0997 RERA


Station Type Date Time Source
EDXW Decoded METAR 2020/02/27 17:20 UTC NOAA

Westerland / Sylt, Germany (EDXW) 54-55N 008-21E 20M
Feb 27, 2020 - 12:20 PM EST / 2020.02.27 1720 UTC
Wind: Variable at 1 MPH (1 KT):0
Visibility: greater than 7 mile(s):0
Sky conditions: partly cloudy
Temperature: 35 F (2 C)
Pressure (altimeter): 29.44 in. Hg (0997 hPa)
ob: EDXW 271720Z VRB01KT 9999 SCT013 02/// Q0997 RERA
cycle: 17

Station Type Date Time Source
EDXW TAF 2009/07/07 14:00 UTC NOAA

TAF EDXW 071400Z 0715/0719 22015G25KT 9999 SCT020

Example: see airport list